sensor_id;sensor_type;location;lat;lon;timestamp;temperature;humidity
2625;DHT22;1322;53.256;10.386;2022-07-29T00:01:35;15.90;99.90
2625;DHT22;1322;53.256;10.386;2022-07-29T00:04:01;16.00;99.90
2625;DHT22;1322;53.256;10.386;2022-07-29T00:06:27;16.00;99.90
2625;DHT22;1322;53.256;10.386;2022-07-29T00:08:52;16.00;99.90
2625;DHT22;1322;53.256;10.386;2022-07-29T00:11:18;16.10;99.90
2625;DHT22;1322;53.256;10.386;2022-07-29T00:13:43;16.10;99.90
2625;DHT22;1322;53.256;10.386;2022-07-29T00:16:09;16.00;99.90
2625;DHT22;1322;53.256;10.386;2022-07-29T00:18:34;15.90;99.90
2625;DHT22;1322;53.256;10.386;2022-07-29T00:21:00;15.90;99.90
2625;DHT22;1322;53.256;10.386;2022-07-29T00:23:26;15.90;99.90
2625;DHT22;1322;53.256;10.386;2022-07-29T00:25:51;15.90;99.90
2625;DHT22;1322;53.256;10.386;2022-07-29T00:28:17;15.80;99.90
2625;DHT22;1322;53.256;10.386;2022-07-29T00:30:42;15.80;99.90
2625;DHT22;1322;53.256;10.386;2022-07-29T00:33:09;15.80;99.90
2625;DHT22;1322;53.256;10.386;2022-07-29T00:35:34;15.70;99.90
2625;DHT22;1322;53.256;10.386;2022-07-29T00:38:10;15.60;99.90
2625;DHT22;1322;53.256;10.386;2022-07-29T00:40:36;15.70;99.90
2625;DHT22;1322;53.256;10.386;2022-07-29T00:43:02;15.60;99.90
2625;DHT22;1322;53.256;10.386;2022-07-29T00:45:27;15.60;99.90
2625;DHT22;1322;53.256;10.386;2022-07-29T00:47:55;15.60;99.90
2625;DHT22;1322;53.256;10.386;2022-07-29T00:50:20;15.60;99.90
2625;DHT22;1322;53.256;10.386;2022-07-29T00:52:46;15.70;99.90
2625;DHT22;1322;53.256;10.386;2022-07-29T00:55:14;15.70;99.90
2625;DHT22;1322;53.256;10.386;2022-07-29T00:57:42;15.50;99.90
2625;DHT22;1322;53.256;10.386;2022-07-29T01:00:10;15.40;99.90
2625;DHT22;1322;53.256;10.386;2022-07-29T01:02:37;15.50;99.90
2625;DHT22;1322;53.256;10.386;2022-07-29T01:05:04;15.40;99.90
2625;DHT22;1322;53.256;10.386;2022-07-29T01:07:30;15.40;99.90
2625;DHT22;1322;53.256;10.386;2022-07-29T01:09:57;15.30;99.90
2625;DHT22;1322;53.256;10.386;2022-07-29T01:12:25;15.40;99.90
2625;DHT22;1322;53.256;10.386;2022-07-29T01:14:53;15.30;99.90
2625;DHT22;1322;53.256;10.386;2022-07-29T01:17:27;15.40;99.90
2625;DHT22;1322;53.256;10.386;2022-07-29T01:20:19;15.20;99.90
2625;DHT22;1322;53.256;10.386;2022-07-29T01:28:59;15.20;99.90
2625;DHT22;1322;53.256;10.386;2022-07-29T01:34:08;15.10;99.90
2625;DHT22;1322;53.256;10.386;2022-07-29T03:40:05;15.00;99.90
2625;DHT22;1322;53.256;10.386;2022-07-29T03:42:33;15.10;99.90
2625;DHT22;1322;53.256;10.386;2022-07-29T03:45:07;15.00;99.90
2625;DHT22;1322;53.256;10.386;2022-07-29T03:47:40;15.00;99.90
2625;DHT22;1322;53.256;10.386;2022-07-29T03:50:11;15.00;99.90
2625;DHT22;1322;53.256;10.386;2022-07-29T03:52:38;15.10;99.90
2625;DHT22;1322;53.256;10.386;2022-07-29T03:55:04;15.10;99.90
2625;DHT22;1322;53.256;10.386;2022-07-29T03:57:31;15.10;99.90
2625;DHT22;1322;53.256;10.386;2022-07-29T03:59:58;15.00;99.90
2625;DHT22;1322;53.256;10.386;2022-07-29T04:02:25;15.00;99.90
2625;DHT22;1322;53.256;10.386;2022-07-29T04:04:51;15.10;99.90
2625;DHT22;1322;53.256;10.386;2022-07-29T04:07:17;15.00;99.90
2625;DHT22;1322;53.256;10.386;2022-07-29T04:09:43;14.90;99.90
2625;DHT22;1322;53.256;10.386;2022-07-29T04:12:09;14.90;99.90
2625;DHT22;1322;53.256;10.386;2022-07-29T04:14:35;15.00;99.90
2625;DHT22;1322;53.256;10.386;2022-07-29T04:17:02;15.00;99.90
2625;DHT22;1322;53.256;10.386;2022-07-29T04:19:27;15.10;99.90
2625;DHT22;1322;53.256;10.386;2022-07-29T04:21:53;15.00;99.90
2625;DHT22;1322;53.256;10.386;2022-07-29T04:24:19;15.10;99.90
2625;DHT22;1322;53.256;10.386;2022-07-29T04:26:47;15.20;99.90
2625;DHT22;1322;53.256;10.386;2022-07-29T04:29:13;15.00;99.90
2625;DHT22;1322;53.256;10.386;2022-07-29T04:31:40;14.90;99.90
2625;DHT22;1322;53.256;10.386;2022-07-29T04:34:06;14.90;99.90
2625;DHT22;1322;53.256;10.386;2022-07-29T04:36:32;15.00;99.90
2625;DHT22;1322;53.256;10.386;2022-07-29T04:38:58;14.90;99.90
2625;DHT22;1322;53.256;10.386;2022-07-29T04:41:24;14.80;99.90
2625;DHT22;1322;53.256;10.386;2022-07-29T04:43:49;14.90;99.90
2625;DHT22;1322;53.256;10.386;2022-07-29T04:46:15;14.90;99.90
2625;DHT22;1322;53.256;10.386;2022-07-29T04:48:41;15.20;99.90
2625;DHT22;1322;53.256;10.386;2022-07-29T04:51:06;15.30;99.90
2625;DHT22;1322;53.256;10.386;2022-07-29T04:53:32;15.50;99.90
2625;DHT22;1322;53.256;10.386;2022-07-29T04:55:58;15.40;99.90
2625;DHT22;1322;53.256;10.386;2022-07-29T04:58:24;15.50;99.90
2625;DHT22;1322;53.256;10.386;2022-07-29T05:00:50;15.70;99.90
2625;DHT22;1322;53.256;10.386;2022-07-29T05:03:16;15.80;99.90
2625;DHT22;1322;53.256;10.386;2022-07-29T05:05:41;15.80;99.90
2625;DHT22;1322;53.256;10.386;2022-07-29T05:08:07;16.00;99.90
2625;DHT22;1322;53.256;10.386;2022-07-29T05:10:33;16.30;99.90
2625;DHT22;1322;53.256;10.386;2022-07-29T05:13:04;16.40;99.90
2625;DHT22;1322;53.256;10.386;2022-07-29T05:15:30;16.50;99.90
2625;DHT22;1322;53.256;10.386;2022-07-29T05:17:56;16.70;99.90
2625;DHT22;1322;53.256;10.386;2022-07-29T05:20:22;16.80;99.90
2625;DHT22;1322;53.256;10.386;2022-07-29T05:22:51;16.90;99.90
2625;DHT22;1322;53.256;10.386;2022-07-29T05:25:17;17.00;99.90
2625;DHT22;1322;53.256;10.386;2022-07-29T05:27:43;17.00;99.90
2625;DHT22;1322;53.256;10.386;2022-07-29T05:30:09;16.90;99.90
2625;DHT22;1322;53.256;10.386;2022-07-29T05:32:35;17.00;99.90
2625;DHT22;1322;53.256;10.386;2022-07-29T05:35:00;17.10;99.90
2625;DHT22;1322;53.256;10.386;2022-07-29T05:37:26;17.20;99.90
2625;DHT22;1322;53.256;10.386;2022-07-29T05:39:51;17.10;99.90
2625;DHT22;1322;53.256;10.386;2022-07-29T05:42:17;17.20;99.90
2625;DHT22;1322;53.256;10.386;2022-07-29T05:44:43;17.30;99.90
2625;DHT22;1322;53.256;10.386;2022-07-29T05:47:08;17.40;99.90
2625;DHT22;1322;53.256;10.386;2022-07-29T05:49:34;17.30;99.90
2625;DHT22;1322;53.256;10.386;2022-07-29T05:51:59;17.30;99.90
2625;DHT22;1322;53.256;10.386;2022-07-29T05:54:25;17.30;99.90
2625;DHT22;1322;53.256;10.386;2022-07-29T05:56:51;17.40;99.90
2625;DHT22;1322;53.256;10.386;2022-07-29T05:59:16;17.40;99.90
2625;DHT22;1322;53.256;10.386;2022-07-29T06:01:42;17.40;99.90
2625;DHT22;1322;53.256;10.386;2022-07-29T06:04:07;17.50;99.90
2625;DHT22;1322;53.256;10.386;2022-07-29T06:06:34;17.70;99.90
2625;DHT22;1322;53.256;10.386;2022-07-29T06:09:00;17.80;99.90
2625;DHT22;1322;53.256;10.386;2022-07-29T06:11:26;17.80;99.90
2625;DHT22;1322;53.256;10.386;2022-07-29T06:13:52;17.60;99.90
2625;DHT22;1322;53.256;10.386;2022-07-29T06:16:18;17.70;99.90
2625;DHT22;1322;53.256;10.386;2022-07-29T06:18:44;17.90;99.90
2625;DHT22;1322;53.256;10.386;2022-07-29T06:21:10;17.90;99.90
2625;DHT22;1322;53.256;10.386;2022-07-29T06:23:37;17.80;99.90
2625;DHT22;1322;53.256;10.386;2022-07-29T06:26:03;17.90;99.90
2625;DHT22;1322;53.256;10.386;2022-07-29T06:28:29;17.80;99.90
2625;DHT22;1322;53.256;10.386;2022-07-29T06:30:54;17.90;99.90
2625;DHT22;1322;53.256;10.386;2022-07-29T06:33:20;18.10;99.90
2625;DHT22;1322;53.256;10.386;2022-07-29T06:35:46;18.20;99.90
2625;DHT22;1322;53.256;10.386;2022-07-29T06:38:15;18.10;99.90
2625;DHT22;1322;53.256;10.386;2022-07-29T06:40:45;18.30;99.90
2625;DHT22;1322;53.256;10.386;2022-07-29T06:43:31;18.30;99.90
2625;DHT22;1322;53.256;10.386;2022-07-29T06:46:04;18.40;99.90
2625;DHT22;1322;53.256;10.386;2022-07-29T06:48:30;18.50;99.90
2625;DHT22;1322;53.256;10.386;2022-07-29T06:50:56;18.70;99.90
2625;DHT22;1322;53.256;10.386;2022-07-29T06:53:22;18.80;99.90
2625;DHT22;1322;53.256;10.386;2022-07-29T06:55:48;18.90;99.90
2625;DHT22;1322;53.256;10.386;2022-07-29T06:58:13;18.70;99.90
2625;DHT22;1322;53.256;10.386;2022-07-29T07:00:41;18.60;99.90
2625;DHT22;1322;53.256;10.386;2022-07-29T07:03:07;18.50;99.90
2625;DHT22;1322;53.256;10.386;2022-07-29T07:05:33;18.40;99.90
2625;DHT22;1322;53.256;10.386;2022-07-29T07:07:59;18.50;99.90
2625;DHT22;1322;53.256;10.386;2022-07-29T07:10:37;18.50;99.90
2625;DHT22;1322;53.256;10.386;2022-07-29T07:13:04;18.50;99.90
2625;DHT22;1322;53.256;10.386;2022-07-29T07:15:30;18.30;99.90
2625;DHT22;1322;53.256;10.386;2022-07-29T07:17:56;18.50;99.90
2625;DHT22;1322;53.256;10.386;2022-07-29T07:20:23;18.70;99.90
2625;DHT22;1322;53.256;10.386;2022-07-29T07:22:48;18.80;99.90
2625;DHT22;1322;53.256;10.386;2022-07-29T07:25:14;18.80;99.90
2625;DHT22;1322;53.256;10.386;2022-07-29T07:27:40;18.80;99.90
2625;DHT22;1322;53.256;10.386;2022-07-29T07:30:06;19.10;99.90
2625;DHT22;1322;53.256;10.386;2022-07-29T07:32:33;19.20;99.90
2625;DHT22;1322;53.256;10.386;2022-07-29T07:34:59;19.20;99.90
2625;DHT22;1322;53.256;10.386;2022-07-29T07:37:25;19.60;99.90
2625;DHT22;1322;53.256;10.386;2022-07-29T07:39:53;19.80;99.90
2625;DHT22;1322;53.256;10.386;2022-07-29T07:42:19;19.80;99.90
2625;DHT22;1322;53.256;10.386;2022-07-29T07:44:45;20.10;99.90
2625;DHT22;1322;53.256;10.386;2022-07-29T07:47:12;20.20;99.90
2625;DHT22;1322;53.256;10.386;2022-07-29T07:49:38;20.50;99.90
2625;DHT22;1322;53.256;10.386;2022-07-29T07:52:04;20.50;99.90
2625;DHT22;1322;53.256;10.386;2022-07-29T07:54:30;20.70;99.90
2625;DHT22;1322;53.256;10.386;2022-07-29T07:56:56;20.80;99.90
2625;DHT22;1322;53.256;10.386;2022-07-29T07:59:22;20.70;99.90
2625;DHT22;1322;53.256;10.386;2022-07-29T08:01:48;21.00;99.90
2625;DHT22;1322;53.256;10.386;2022-07-29T08:04:14;21.00;99.90
2625;DHT22;1322;53.256;10.386;2022-07-29T08:06:39;21.10;99.90
2625;DHT22;1322;53.256;10.386;2022-07-29T08:09:05;21.00;99.90
2625;DHT22;1322;53.256;10.386;2022-07-29T08:11:31;21.10;99.90
2625;DHT22;1322;53.256;10.386;2022-07-29T08:13:57;21.00;99.90
2625;DHT22;1322;53.256;10.386;2022-07-29T08:16:23;21.10;99.90
2625;DHT22;1322;53.256;10.386;2022-07-29T08:18:50;21.40;99.90
2625;DHT22;1322;53.256;10.386;2022-07-29T08:21:16;21.20;99.90
2625;DHT22;1322;53.256;10.386;2022-07-29T08:23:45;21.10;99.90
2625;DHT22;1322;53.256;10.386;2022-07-29T08:26:14;21.10;99.90
2625;DHT22;1322;53.256;10.386;2022-07-29T08:28:42;21.40;99.90
2625;DHT22;1322;53.256;10.386;2022-07-29T08:31:11;21.50;99.90
2625;DHT22;1322;53.256;10.386;2022-07-29T08:33:37;21.80;99.90
2625;DHT22;1322;53.256;10.386;2022-07-29T08:36:04;22.20;99.90
2625;DHT22;1322;53.256;10.386;2022-07-29T08:38:30;22.10;99.90
2625;DHT22;1322;53.256;10.386;2022-07-29T08:40:56;22.20;99.90
2625;DHT22;1322;53.256;10.386;2022-07-29T08:43:22;22.10;99.90
2625;DHT22;1322;53.256;10.386;2022-07-29T08:45:49;22.10;99.90
2625;DHT22;1322;53.256;10.386;2022-07-29T08:48:17;22.20;99.90
2625;DHT22;1322;53.256;10.386;2022-07-29T08:50:44;22.40;99.90
2625;DHT22;1322;53.256;10.386;2022-07-29T08:53:15;22.60;99.90
2625;DHT22;1322;53.256;10.386;2022-07-29T08:55:49;22.70;99.90
2625;DHT22;1322;53.256;10.386;2022-07-29T08:58:16;22.70;99.90
2625;DHT22;1322;53.256;10.386;2022-07-29T09:00:53;22.60;99.90
2625;DHT22;1322;53.256;10.386;2022-07-29T09:03:20;23.00;99.90
2625;DHT22;1322;53.256;10.386;2022-07-29T09:05:48;23.00;99.90
2625;DHT22;1322;53.256;10.386;2022-07-29T09:08:15;22.90;99.90
2625;DHT22;1322;53.256;10.386;2022-07-29T09:10:41;23.10;99.90
2625;DHT22;1322;53.256;10.386;2022-07-29T09:13:07;23.20;99.90
2625;DHT22;1322;53.256;10.386;2022-07-29T09:15:33;23.20;99.90
2625;DHT22;1322;53.256;10.386;2022-07-29T09:17:58;23.50;99.90
2625;DHT22;1322;53.256;10.386;2022-07-29T09:20:25;23.90;99.90
2625;DHT22;1322;53.256;10.386;2022-07-29T09:22:52;24.00;99.90
2625;DHT22;1322;53.256;10.386;2022-07-29T09:25:39;23.80;99.90
2625;DHT22;1322;53.256;10.386;2022-07-29T09:28:13;23.90;99.90
2625;DHT22;1322;53.256;10.386;2022-07-29T09:30:56;23.80;99.90
2625;DHT22;1322;53.256;10.386;2022-07-29T09:33:23;24.30;99.90
2625;DHT22;1322;53.256;10.386;2022-07-29T09:36:06;24.30;99.90
2625;DHT22;1322;53.256;10.386;2022-07-29T09:38:33;24.30;99.90
2625;DHT22;1322;53.256;10.386;2022-07-29T09:41:00;24.40;99.90
2625;DHT22;1322;53.256;10.386;2022-07-29T09:43:26;24.60;99.90
2625;DHT22;1322;53.256;10.386;2022-07-29T09:45:52;25.00;99.90
2625;DHT22;1322;53.256;10.386;2022-07-29T09:48:22;24.90;99.90
2625;DHT22;1322;53.256;10.386;2022-07-29T09:50:49;25.00;99.90
2625;DHT22;1322;53.256;10.386;2022-07-29T09:53:30;24.90;99.90
2625;DHT22;1322;53.256;10.386;2022-07-29T09:55:56;25.20;99.90
2625;DHT22;1322;53.256;10.386;2022-07-29T09:58:22;25.10;99.90
2625;DHT22;1322;53.256;10.386;2022-07-29T10:00:49;25.10;99.90
2625;DHT22;1322;53.256;10.386;2022-07-29T10:03:16;25.30;99.90
2625;DHT22;1322;53.256;10.386;2022-07-29T10:05:43;25.30;99.90
2625;DHT22;1322;53.256;10.386;2022-07-29T10:08:10;25.30;99.90
2625;DHT22;1322;53.256;10.386;2022-07-29T10:10:38;25.50;99.90
2625;DHT22;1322;53.256;10.386;2022-07-29T10:13:06;25.30;99.90
2625;DHT22;1322;53.256;10.386;2022-07-29T10:15:34;25.30;99.90
2625;DHT22;1322;53.256;10.386;2022-07-29T10:18:07;25.20;99.90
2625;DHT22;1322;53.256;10.386;2022-07-29T10:20:34;25.00;99.90
2625;DHT22;1322;53.256;10.386;2022-07-29T10:23:00;24.90;99.90
2625;DHT22;1322;53.256;10.386;2022-07-29T10:25:26;25.20;99.90
2625;DHT22;1322;53.256;10.386;2022-07-29T10:27:52;25.10;99.90
2625;DHT22;1322;53.256;10.386;2022-07-29T10:30:20;24.80;99.90
2625;DHT22;1322;53.256;10.386;2022-07-29T10:35:54;25.00;99.90
2625;DHT22;1322;53.256;10.386;2022-07-29T10:38:44;25.10;99.90
2625;DHT22;1322;53.256;10.386;2022-07-29T10:44:22;25.20;99.90
2625;DHT22;1322;53.256;10.386;2022-07-29T10:46:49;25.30;99.90
2625;DHT22;1322;53.256;10.386;2022-07-29T10:57:29;25.60;99.90
2625;DHT22;1322;53.256;10.386;2022-07-29T11:05:05;26.20;99.90
2625;DHT22;1322;53.256;10.386;2022-07-29T11:07:32;25.90;99.90
2625;DHT22;1322;53.256;10.386;2022-07-29T11:10:29;25.70;99.90
2625;DHT22;1322;53.256;10.386;2022-07-29T11:12:54;25.60;99.90
2625;DHT22;1322;53.256;10.386;2022-07-29T11:15:21;25.70;99.90
2625;DHT22;1322;53.256;10.386;2022-07-29T11:31:33;26.00;99.90
2625;DHT22;1322;53.256;10.386;2022-07-29T11:40:25;26.00;99.90
2625;DHT22;1322;53.256;10.386;2022-07-29T11:47:31;26.30;99.90
2625;DHT22;1322;53.256;10.386;2022-07-29T11:50:00;26.40;99.90
2625;DHT22;1322;53.256;10.386;2022-07-29T11:52:37;26.50;99.90
2625;DHT22;1322;53.256;10.386;2022-07-29T11:55:10;26.50;99.90
2625;DHT22;1322;53.256;10.386;2022-07-29T11:57:36;26.60;99.90
2625;DHT22;1322;53.256;10.386;2022-07-29T12:00:04;26.60;99.90
2625;DHT22;1322;53.256;10.386;2022-07-29T12:02:41;26.70;99.90
2625;DHT22;1322;53.256;10.386;2022-07-29T12:05:09;26.90;99.90
2625;DHT22;1322;53.256;10.386;2022-07-29T12:07:35;27.00;99.90
2625;DHT22;1322;53.256;10.386;2022-07-29T12:10:03;27.30;99.90
2625;DHT22;1322;53.256;10.386;2022-07-29T12:12:29;27.30;99.90
2625;DHT22;1322;53.256;10.386;2022-07-29T12:14:55;27.30;99.90
2625;DHT22;1322;53.256;10.386;2022-07-29T12:17:29;27.50;99.90
2625;DHT22;1322;53.256;10.386;2022-07-29T12:19:56;27.60;99.90
2625;DHT22;1322;53.256;10.386;2022-07-29T12:22:41;27.40;99.90
2625;DHT22;1322;53.256;10.386;2022-07-29T12:25:13;27.50;99.90
2625;DHT22;1322;53.256;10.386;2022-07-29T12:27:41;27.40;99.90
2625;DHT22;1322;53.256;10.386;2022-07-29T12:30:13;27.60;99.90
2625;DHT22;1322;53.256;10.386;2022-07-29T12:32:43;27.50;99.90
2625;DHT22;1322;53.256;10.386;2022-07-29T12:35:12;27.50;99.90
2625;DHT22;1322;53.256;10.386;2022-07-29T12:37:39;27.60;99.90
2625;DHT22;1322;53.256;10.386;2022-07-29T12:40:08;27.40;99.90
2625;DHT22;1322;53.256;10.386;2022-07-29T12:42:34;27.70;99.90
2625;DHT22;1322;53.256;10.386;2022-07-29T12:45:00;27.60;99.90
2625;DHT22;1322;53.256;10.386;2022-07-29T12:47:27;27.60;99.90
2625;DHT22;1322;53.256;10.386;2022-07-29T12:50:13;27.80;99.90
2625;DHT22;1322;53.256;10.386;2022-07-29T12:52:45;28.10;99.90
2625;DHT22;1322;53.256;10.386;2022-07-29T12:55:11;28.10;99.90
2625;DHT22;1322;53.256;10.386;2022-07-29T12:57:48;27.90;99.90
2625;DHT22;1322;53.256;10.386;2022-07-29T13:00:16;28.00;99.90
2625;DHT22;1322;53.256;10.386;2022-07-29T13:02:42;28.00;99.90
2625;DHT22;1322;53.256;10.386;2022-07-29T13:05:10;27.70;99.90
2625;DHT22;1322;53.256;10.386;2022-07-29T13:07:36;27.80;99.90
2625;DHT22;1322;53.256;10.386;2022-07-29T13:10:20;27.90;99.90
2625;DHT22;1322;53.256;10.386;2022-07-29T13:13:12;28.00;99.90
2625;DHT22;1322;53.256;10.386;2022-07-29T13:15:41;27.80;99.90
2625;DHT22;1322;53.256;10.386;2022-07-29T13:18:32;27.70;99.90
2625;DHT22;1322;53.256;10.386;2022-07-29T13:21:13;27.20;99.90
2625;DHT22;1322;53.256;10.386;2022-07-29T13:23:39;27.30;99.90
2625;DHT22;1322;53.256;10.386;2022-07-29T13:26:09;27.00;99.90
2625;DHT22;1322;53.256;10.386;2022-07-29T13:28:35;27.10;99.90
2625;DHT22;1322;53.256;10.386;2022-07-29T13:31:01;27.10;99.90
2625;DHT22;1322;53.256;10.386;2022-07-29T13:33:26;27.00;99.90
2625;DHT22;1322;53.256;10.386;2022-07-29T13:35:52;27.10;99.90
2625;DHT22;1322;53.256;10.386;2022-07-29T13:38:18;27.10;99.90
2625;DHT22;1322;53.256;10.386;2022-07-29T13:40:43;27.10;99.90
2625;DHT22;1322;53.256;10.386;2022-07-29T13:43:10;26.90;99.90
2625;DHT22;1322;53.256;10.386;2022-07-29T13:45:35;27.00;99.90
2625;DHT22;1322;53.256;10.386;2022-07-29T13:48:01;27.10;99.90
2625;DHT22;1322;53.256;10.386;2022-07-29T13:50:27;27.30;99.90
2625;DHT22;1322;53.256;10.386;2022-07-29T13:52:53;27.30;99.60
2625;DHT22;1322;53.256;10.386;2022-07-29T13:55:18;27.30;99.70
2625;DHT22;1322;53.256;10.386;2022-07-29T13:57:44;27.20;99.70
2625;DHT22;1322;53.256;10.386;2022-07-29T14:00:11;27.00;99.50
2625;DHT22;1322;53.256;10.386;2022-07-29T14:02:38;27.00;99.40
2625;DHT22;1322;53.256;10.386;2022-07-29T14:05:05;27.10;99.30
2625;DHT22;1322;53.256;10.386;2022-07-29T14:07:31;27.10;99.50
2625;DHT22;1322;53.256;10.386;2022-07-29T14:09:56;26.80;99.30
2625;DHT22;1322;53.256;10.386;2022-07-29T14:12:22;26.90;99.10
2625;DHT22;1322;53.256;10.386;2022-07-29T14:14:48;26.70;99.30
2625;DHT22;1322;53.256;10.386;2022-07-29T14:17:14;27.00;99.00
2625;DHT22;1322;53.256;10.386;2022-07-29T14:19:40;27.10;98.90
2625;DHT22;1322;53.256;10.386;2022-07-29T14:22:07;27.20;99.40
2625;DHT22;1322;53.256;10.386;2022-07-29T14:24:33;27.10;98.60
2625;DHT22;1322;53.256;10.386;2022-07-29T14:26:59;26.90;98.50
2625;DHT22;1322;53.256;10.386;2022-07-29T14:29:24;26.70;98.20
2625;DHT22;1322;53.256;10.386;2022-07-29T14:31:50;26.80;98.90
2625;DHT22;1322;53.256;10.386;2022-07-29T14:34:16;26.80;98.50
2625;DHT22;1322;53.256;10.386;2022-07-29T14:36:41;26.80;98.40
2625;DHT22;1322;53.256;10.386;2022-07-29T14:39:07;26.90;98.60
2625;DHT22;1322;53.256;10.386;2022-07-29T14:41:33;27.00;98.50
2625;DHT22;1322;53.256;10.386;2022-07-29T14:43:59;27.20;98.70
2625;DHT22;1322;53.256;10.386;2022-07-29T14:46:27;27.30;98.60
2625;DHT22;1322;53.256;10.386;2022-07-29T14:48:53;27.20;97.90
2625;DHT22;1322;53.256;10.386;2022-07-29T14:51:19;27.30;98.30
2625;DHT22;1322;53.256;10.386;2022-07-29T14:53:44;27.50;97.70
2625;DHT22;1322;53.256;10.386;2022-07-29T14:56:10;27.50;97.80
2625;DHT22;1322;53.256;10.386;2022-07-29T14:58:37;27.40;97.20
2625;DHT22;1322;53.256;10.386;2022-07-29T15:01:02;27.30;97.40
2625;DHT22;1322;53.256;10.386;2022-07-29T15:03:28;27.20;97.30
2625;DHT22;1322;53.256;10.386;2022-07-29T15:05:54;27.20;97.20
2625;DHT22;1322;53.256;10.386;2022-07-29T15:08:20;27.10;97.30
2625;DHT22;1322;53.256;10.386;2022-07-29T15:10:45;27.00;97.10
2625;DHT22;1322;53.256;10.386;2022-07-29T15:13:11;26.90;97.10
2625;DHT22;1322;53.256;10.386;2022-07-29T15:15:37;26.90;97.10
2625;DHT22;1322;53.256;10.386;2022-07-29T15:18:03;27.00;96.90
2625;DHT22;1322;53.256;10.386;2022-07-29T15:20:28;27.20;96.70
2625;DHT22;1322;53.256;10.386;2022-07-29T15:22:54;27.50;96.40
2625;DHT22;1322;53.256;10.386;2022-07-29T15:25:22;27.70;95.90
2625;DHT22;1322;53.256;10.386;2022-07-29T15:27:47;27.80;96.00
2625;DHT22;1322;53.256;10.386;2022-07-29T15:30:13;27.50;96.40
2625;DHT22;1322;53.256;10.386;2022-07-29T15:32:45;27.40;96.60
2625;DHT22;1322;53.256;10.386;2022-07-29T15:35:11;27.20;96.60
2625;DHT22;1322;53.256;10.386;2022-07-29T15:37:39;27.30;97.00
2625;DHT22;1322;53.256;10.386;2022-07-29T15:40:05;27.20;96.60
2625;DHT22;1322;53.256;10.386;2022-07-29T15:42:31;27.20;96.20
2625;DHT22;1322;53.256;10.386;2022-07-29T15:44:57;27.50;96.70
2625;DHT22;1322;53.256;10.386;2022-07-29T15:47:23;27.50;96.50
2625;DHT22;1322;53.256;10.386;2022-07-29T15:49:49;27.40;96.70
2625;DHT22;1322;53.256;10.386;2022-07-29T15:52:19;27.20;96.60
2625;DHT22;1322;53.256;10.386;2022-07-29T15:54:46;27.40;96.50
2625;DHT22;1322;53.256;10.386;2022-07-29T15:57:12;27.30;96.90
2625;DHT22;1322;53.256;10.386;2022-07-29T15:59:37;27.30;99.90
2625;DHT22;1322;53.256;10.386;2022-07-29T16:02:03;27.20;99.90
2625;DHT22;1322;53.256;10.386;2022-07-29T16:04:29;27.20;99.90
2625;DHT22;1322;53.256;10.386;2022-07-29T16:06:56;27.00;99.90
2625;DHT22;1322;53.256;10.386;2022-07-29T16:09:22;26.70;99.90
2625;DHT22;1322;53.256;10.386;2022-07-29T16:11:48;26.60;99.90
2625;DHT22;1322;53.256;10.386;2022-07-29T16:14:16;26.50;99.90
2625;DHT22;1322;53.256;10.386;2022-07-29T16:16:42;26.40;99.90
2625;DHT22;1322;53.256;10.386;2022-07-29T16:19:08;26.20;99.90
2625;DHT22;1322;53.256;10.386;2022-07-29T16:21:35;26.20;99.90
2625;DHT22;1322;53.256;10.386;2022-07-29T16:24:01;26.20;99.90
2625;DHT22;1322;53.256;10.386;2022-07-29T16:26:27;26.10;99.90
2625;DHT22;1322;53.256;10.386;2022-07-29T16:28:53;26.10;99.90
2625;DHT22;1322;53.256;10.386;2022-07-29T16:31:19;26.10;99.90
2625;DHT22;1322;53.256;10.386;2022-07-29T16:33:48;26.00;99.90
2625;DHT22;1322;53.256;10.386;2022-07-29T16:36:14;26.00;99.90
2625;DHT22;1322;53.256;10.386;2022-07-29T16:38:39;25.80;99.90
2625;DHT22;1322;53.256;10.386;2022-07-29T16:41:06;25.80;99.90
2625;DHT22;1322;53.256;10.386;2022-07-29T16:43:32;25.70;99.90
2625;DHT22;1322;53.256;10.386;2022-07-29T16:45:58;25.70;99.90
2625;DHT22;1322;53.256;10.386;2022-07-29T16:48:24;25.70;99.90
2625;DHT22;1322;53.256;10.386;2022-07-29T16:50:49;25.70;99.90
2625;DHT22;1322;53.256;10.386;2022-07-29T16:53:15;25.60;99.90
2625;DHT22;1322;53.256;10.386;2022-07-29T16:55:41;25.60;99.90
2625;DHT22;1322;53.256;10.386;2022-07-29T16:58:07;25.50;99.90
2625;DHT22;1322;53.256;10.386;2022-07-29T17:00:32;25.50;99.90
2625;DHT22;1322;53.256;10.386;2022-07-29T17:02:58;25.50;99.90
2625;DHT22;1322;53.256;10.386;2022-07-29T17:05:25;25.50;99.90
2625;DHT22;1322;53.256;10.386;2022-07-29T17:07:50;25.40;99.90
2625;DHT22;1322;53.256;10.386;2022-07-29T17:10:16;25.30;99.90
2625;DHT22;1322;53.256;10.386;2022-07-29T17:12:42;25.20;99.90
2625;DHT22;1322;53.256;10.386;2022-07-29T17:15:09;25.10;99.90
2625;DHT22;1322;53.256;10.386;2022-07-29T17:17:36;24.90;99.90
2625;DHT22;1322;53.256;10.386;2022-07-29T17:20:03;24.80;99.90
2625;DHT22;1322;53.256;10.386;2022-07-29T17:22:29;24.70;99.90
2625;DHT22;1322;53.256;10.386;2022-07-29T17:24:54;24.50;99.90
2625;DHT22;1322;53.256;10.386;2022-07-29T17:27:20;24.50;99.90
2625;DHT22;1322;53.256;10.386;2022-07-29T17:29:46;24.40;99.90
2625;DHT22;1322;53.256;10.386;2022-07-29T17:32:12;24.40;99.90
2625;DHT22;1322;53.256;10.386;2022-07-29T17:34:38;24.40;99.90
2625;DHT22;1322;53.256;10.386;2022-07-29T17:37:09;24.40;99.90
2625;DHT22;1322;53.256;10.386;2022-07-29T17:39:41;24.30;99.90
2625;DHT22;1322;53.256;10.386;2022-07-29T17:42:08;24.20;99.90
2625;DHT22;1322;53.256;10.386;2022-07-29T17:44:34;24.20;99.90
2625;DHT22;1322;53.256;10.386;2022-07-29T17:47:00;24.20;99.90
2625;DHT22;1322;53.256;10.386;2022-07-29T17:49:26;24.20;99.90
2625;DHT22;1322;53.256;10.386;2022-07-29T17:51:52;24.20;99.90
2625;DHT22;1322;53.256;10.386;2022-07-29T17:54:18;24.10;99.90
2625;DHT22;1322;53.256;10.386;2022-07-29T17:56:44;24.10;99.90
2625;DHT22;1322;53.256;10.386;2022-07-29T17:59:10;24.10;99.90
2625;DHT22;1322;53.256;10.386;2022-07-29T18:01:36;24.00;99.90
2625;DHT22;1322;53.256;10.386;2022-07-29T18:04:02;24.00;99.90
2625;DHT22;1322;53.256;10.386;2022-07-29T18:06:31;23.90;99.90
2625;DHT22;1322;53.256;10.386;2022-07-29T18:08:57;23.90;99.90
2625;DHT22;1322;53.256;10.386;2022-07-29T18:11:22;23.90;99.90
2625;DHT22;1322;53.256;10.386;2022-07-29T18:13:48;23.80;99.90
2625;DHT22;1322;53.256;10.386;2022-07-29T18:16:16;23.80;99.90
2625;DHT22;1322;53.256;10.386;2022-07-29T18:18:45;23.80;99.90
2625;DHT22;1322;53.256;10.386;2022-07-29T18:21:11;23.80;99.90
2625;DHT22;1322;53.256;10.386;2022-07-29T18:23:37;23.70;99.90
2625;DHT22;1322;53.256;10.386;2022-07-29T18:26:03;23.80;99.90
2625;DHT22;1322;53.256;10.386;2022-07-29T18:28:29;23.70;99.90
2625;DHT22;1322;53.256;10.386;2022-07-29T18:30:54;23.70;99.90
2625;DHT22;1322;53.256;10.386;2022-07-29T18:33:20;23.70;99.90
2625;DHT22;1322;53.256;10.386;2022-07-29T18:35:47;23.70;99.90
2625;DHT22;1322;53.256;10.386;2022-07-29T18:38:13;23.70;99.90
2625;DHT22;1322;53.256;10.386;2022-07-29T18:40:39;23.60;99.90
2625;DHT22;1322;53.256;10.386;2022-07-29T18:43:07;23.50;99.90